createdAt,value
2022-08-05T00:00:23.810Z,101214.88
2022-08-05T00:02:53.982Z,101221.16
2022-08-05T00:06:03.118Z,101220.50
2022-08-05T00:08:32.432Z,101216.94
2022-08-05T00:11:01.473Z,101231.22
2022-08-05T00:13:38.245Z,101232.66
2022-08-05T00:16:08.870Z,101232.34
2022-08-05T00:18:37.914Z,101232.44
2022-08-05T00:21:06.969Z,101231.28
2022-08-05T00:23:46.933Z,101227.03
2022-08-05T00:26:22.565Z,101226.59
2022-08-05T00:28:51.839Z,101235.03
2022-08-05T00:31:41.527Z,101234.16
2022-08-05T00:34:55.794Z,101238.66
2022-08-05T00:37:11.793Z,101237.72
2022-08-05T00:39:58.588Z,101234.31
2022-08-05T00:42:33.953Z,101228.59
2022-08-05T00:45:02.237Z,101216.69
2022-08-05T00:47:31.761Z,101214.59
2022-08-05T00:50:18.580Z,101202.06
2022-08-05T00:52:49.173Z,101204.88
2022-08-05T00:55:18.902Z,101203.56
2022-08-05T00:57:57.957Z,101207.75
2022-08-05T01:00:28.446Z,101199.84
2022-08-05T01:02:57.211Z,101185.00
2022-08-05T01:05:27.523Z,101169.72
2022-08-05T01:08:41.245Z,101174.84
2022-08-05T01:10:52.122Z,101175.03
2022-08-05T01:13:27.394Z,101166.31
2022-08-05T01:16:23.006Z,101160.19
2022-08-05T01:18:58.703Z,101162.59
2022-08-05T01:21:50.642Z,101167.63
2022-08-05T01:24:32.840Z,101165.34
2022-08-05T01:27:19.328Z,101163.28
2022-08-05T01:29:52.111Z,101172.09
2022-08-05T01:32:24.879Z,101174.81
2022-08-05T01:34:59.999Z,101149.03
2022-08-05T01:37:36.950Z,101110.28
2022-08-05T01:40:14.345Z,101112.19
2022-08-05T01:42:47.647Z,101112.88
2022-08-05T01:45:17.741Z,101101.47
2022-08-05T01:47:54.468Z,101110.09
2022-08-05T01:50:28.723Z,101111.00
2022-08-05T01:53:01.792Z,101109.97
2022-08-05T01:55:36.057Z,101114.03
2022-08-05T01:58:10.035Z,101117.56
2022-08-05T02:00:48.741Z,101101.59
2022-08-05T02:03:28.912Z,101075.75
2022-08-05T02:06:03.721Z,101040.09
2022-08-05T02:08:57.773Z,101042.19
2022-08-05T02:11:33.575Z,101056.00
2022-08-05T02:14:04.226Z,101022.13
2022-08-05T02:16:44.121Z,100999.97
2022-08-05T02:19:17.616Z,100998.50
2022-08-05T02:21:52.678Z,101041.25
2022-08-05T02:24:23.701Z,101051.59
2022-08-05T02:26:56.328Z,101047.47
2022-08-05T02:29:58.592Z,101072.28
2022-08-05T02:32:19.749Z,101099.88
2022-08-05T02:34:55.057Z,101128.13
2022-08-05T02:37:24.072Z,101141.72
2022-08-05T02:39:54.031Z,101150.31
2022-08-05T02:42:26.178Z,101133.16
2022-08-05T02:45:00.640Z,101133.09
2022-08-05T02:48:06.901Z,101127.28
2022-08-05T02:50:22.009Z,101122.94
2022-08-05T02:52:52.146Z,101141.19
2022-08-05T02:55:54.114Z,101135.63
2022-08-05T02:58:13.088Z,101137.56
2022-08-05T03:00:41.843Z,101151.53
2022-08-05T03:03:16.800Z,101152.53
2022-08-05T03:06:56.653Z,101166.59
2022-08-05T03:08:33.957Z,101159.41
2022-08-05T03:11:55.561Z,101169.31
2022-08-05T03:13:52.208Z,101164.44
2022-08-05T03:16:31.670Z,101158.75
2022-08-05T03:19:01.399Z,101155.41
2022-08-05T03:21:41.352Z,101150.06
2022-08-05T03:24:17.858Z,101128.88
2022-08-05T03:26:57.715Z,101132.13
2022-08-05T03:29:45.651Z,101123.44
2022-08-05T03:32:15.597Z,101097.78
2022-08-05T03:34:50.785Z,101108.66
2022-08-05T03:37:20.757Z,101102.22
2022-08-05T03:40:01.113Z,101106.94
2022-08-05T03:42:32.305Z,101103.34
2022-08-05T03:45:21.075Z,101124.34
2022-08-05T03:47:49.801Z,101111.66
2022-08-05T03:50:19.560Z,101116.38
2022-08-05T03:55:52.848Z,101123.44
2022-08-05T03:56:09.274Z,101110.28
2022-08-05T03:58:41.101Z,101124.84
2022-08-05T04:01:11.308Z,101130.50
2022-08-05T04:04:05.372Z,101139.09
2022-08-05T04:06:35.121Z,101151.00
2022-08-05T04:09:06.306Z,101151.34
2022-08-05T04:11:50.845Z,101152.81
2022-08-05T04:14:29.810Z,101134.00
2022-08-05T04:17:00.824Z,101143.88
2022-08-05T04:19:31.344Z,101147.28
2022-08-05T04:22:09.391Z,101152.78
2022-08-05T04:24:43.849Z,101146.53
2022-08-05T04:27:13.562Z,101140.25
2022-08-05T04:29:41.830Z,101158.00
2022-08-05T04:32:10.691Z,101175.38
2022-08-05T04:34:42.922Z,101169.03
2022-08-05T04:37:12.940Z,101163.44
2022-08-05T04:39:41.387Z,101169.22
2022-08-05T04:42:10.461Z,101165.75
2022-08-05T04:44:39.852Z,101182.97
2022-08-05T04:47:09.805Z,101191.41
2022-08-05T04:50:01.803Z,101191.94
2022-08-05T04:52:29.151Z,101210.97
2022-08-05T04:55:13.915Z,101206.41
2022-08-05T04:57:47.761Z,101212.16
2022-08-05T05:00:16.920Z,101219.69
2022-08-05T05:02:45.249Z,101223.78
2022-08-05T05:05:16.637Z,101226.38
2022-08-05T05:08:01.573Z,101194.34
2022-08-05T05:10:33.188Z,101167.97
2022-08-05T05:13:04.099Z,101189.13
2022-08-05T05:16:01.995Z,101188.50
2022-08-05T05:18:31.076Z,101188.97
2022-08-05T05:21:03.160Z,101181.44
2022-08-05T05:24:01.995Z,101186.47
2022-08-05T05:26:28.451Z,101170.59
2022-08-05T05:29:02.149Z,101178.66
2022-08-05T05:34:02.543Z,101202.31
2022-08-05T05:36:31.892Z,101198.63
2022-08-05T05:39:03.590Z,101219.03
2022-08-05T05:41:40.150Z,101222.56
2022-08-05T05:44:35.638Z,101219.34
2022-08-05T05:46:58.064Z,101231.38
2022-08-05T05:49:26.533Z,101220.72
2022-08-05T05:51:54.904Z,101224.16
2022-08-05T05:54:49.882Z,101232.22
2022-08-05T05:57:23.930Z,101207.28
2022-08-05T05:59:52.887Z,101222.16
2022-08-05T06:02:32.654Z,101227.47
2022-08-05T06:05:10.527Z,101238.06
2022-08-05T06:07:58.003Z,101224.88
2022-08-05T06:10:49.116Z,101209.72
2022-08-05T06:13:21.155Z,101200.63
2022-08-05T06:16:29.865Z,101209.03
2022-08-05T06:18:40.324Z,101211.56
2022-08-05T06:21:18.789Z,101203.72
2022-08-05T06:23:57.770Z,101225.94
2022-08-05T06:26:33.772Z,101223.28
2022-08-05T06:29:23.659Z,101226.22
2022-08-05T06:31:51.790Z,101235.69
2022-08-05T06:34:39.422Z,101244.84
2022-08-05T06:37:12.355Z,101230.25
2022-08-05T06:39:40.679Z,101225.13
2022-08-05T06:42:11.584Z,101235.75
2022-08-05T06:44:40.512Z,101228.22
2022-08-05T06:48:11.622Z,101235.84
2022-08-05T06:50:05.507Z,101233.59
2022-08-05T06:52:38.106Z,101241.03
2022-08-05T06:55:09.506Z,101253.22
2022-08-05T06:58:02.558Z,101242.34
2022-08-05T07:00:34.995Z,101232.44
2022-08-05T07:03:03.155Z,101234.88
2022-08-05T07:05:37.698Z,101235.59
2022-08-05T07:08:10.786Z,101245.88
2022-08-05T07:10:52.410Z,101249.88
2022-08-05T07:13:57.568Z,101258.41
2022-08-05T07:17:59.534Z,101252.19
2022-08-05T07:22:28.961Z,101250.81
2022-08-05T07:24:59.465Z,101240.56
2022-08-05T07:27:58.692Z,101234.16
2022-08-05T07:30:54.789Z,101245.06
2022-08-05T07:33:35.087Z,101235.44
2022-08-05T07:36:20.869Z,101241.75
2022-08-05T07:38:54.695Z,101259.00
2022-08-05T07:42:13.824Z,101260.41
2022-08-05T07:44:18.783Z,101247.56
2022-08-05T07:46:50.291Z,101249.31
2022-08-05T07:49:19.752Z,101253.66
2022-08-05T07:51:52.982Z,101252.41
2022-08-05T07:54:33.632Z,101249.75
2022-08-05T07:57:17.720Z,101259.47
2022-08-05T07:59:57.461Z,101248.00
2022-08-05T08:02:30.661Z,101243.81
2022-08-05T08:05:00.551Z,101244.06
2022-08-05T08:07:39.713Z,101251.66
2022-08-05T08:10:24.093Z,101243.16
2022-08-05T08:12:58.598Z,101246.19
2022-08-05T08:16:34.552Z,101237.81
2022-08-05T08:18:20.609Z,101256.97
2022-08-05T08:21:03.154Z,101262.56
2022-08-05T08:24:03.053Z,101264.31
2022-08-05T08:26:29.728Z,101278.19
2022-08-05T08:29:21.869Z,101263.19
2022-08-05T08:31:48.352Z,101269.50
2022-08-05T08:34:18.626Z,101269.63
2022-08-05T08:36:54.682Z,101273.19
2022-08-05T08:39:24.915Z,101287.31
2022-08-05T08:41:59.852Z,101283.25
2022-08-05T08:45:23.973Z,101269.25
2022-08-05T08:48:06.879Z,101268.53
2022-08-05T08:50:51.949Z,101273.34
2022-08-05T08:53:12.017Z,101275.03
2022-08-05T08:56:03.788Z,101279.50
2022-08-05T08:58:43.004Z,101289.16
2022-08-05T09:01:17.004Z,101289.09
2022-08-05T09:03:47.378Z,101295.13
2022-08-05T09:06:21.297Z,101298.34
2022-08-05T09:08:52.252Z,101315.38
2022-08-05T09:11:51.727Z,101322.75
2022-08-05T09:14:54.771Z,101307.63
2022-08-05T09:16:56.776Z,101298.88
2022-08-05T09:19:28.010Z,101298.41
2022-08-05T09:22:17.956Z,101297.34
2022-08-05T09:25:00.447Z,101300.25
2022-08-05T09:28:03.982Z,101290.59
2022-08-05T09:30:24.118Z,101289.78
2022-08-05T09:32:53.653Z,101302.63
2022-08-05T09:35:26.591Z,101312.09
2022-08-05T09:38:16.934Z,101307.81
2022-08-05T09:40:53.647Z,101300.25
2022-08-05T09:43:40.834Z,101318.09
2022-08-05T09:46:28.019Z,101323.59
2022-08-05T09:49:08.024Z,101302.25
2022-08-05T09:51:49.896Z,101313.25
2022-08-05T09:54:31.708Z,101316.88
2022-08-05T09:57:01.159Z,101320.63
2022-08-05T09:59:35.043Z,101311.56
2022-08-05T10:02:06.111Z,101322.56
2022-08-05T10:04:39.763Z,101317.56
2022-08-05T10:07:32.019Z,101318.59
2022-08-05T10:10:15.344Z,101313.63
2022-08-05T10:12:50.405Z,101294.44
2022-08-05T10:15:26.751Z,101305.44
2022-08-05T10:21:15.553Z,101311.78
2022-08-05T10:23:59.748Z,101318.25
2022-08-05T10:26:33.917Z,101322.47
2022-08-05T10:29:02.793Z,101331.91
2022-08-05T10:32:53.996Z,101335.94
2022-08-05T10:34:25.805Z,101322.56
2022-08-05T10:37:03.167Z,101316.97
2022-08-05T10:43:30.894Z,101307.25
2022-08-05T10:46:07.681Z,101320.78
2022-08-05T10:48:52.429Z,101356.84
2022-08-05T10:51:28.732Z,101358.03
2022-08-05T10:54:01.540Z,101340.50
2022-08-05T10:56:45.743Z,101339.94
2022-08-05T11:00:02.697Z,101334.38
2022-08-05T11:02:14.780Z,101337.13
2022-08-05T11:04:58.972Z,101344.00
2022-08-05T11:07:32.903Z,101361.97
2022-08-05T11:10:27.555Z,101369.81
2022-08-05T11:12:57.619Z,101379.13
2022-08-05T11:16:01.278Z,101377.97
2022-08-05T11:18:30.211Z,101350.78
2022-08-05T11:21:12.118Z,101362.88
2022-08-05T11:24:04.560Z,101370.22
2022-08-05T11:27:51.090Z,101367.66
2022-08-05T11:30:19.222Z,101381.94
2022-08-05T11:48:06.370Z,101408.97
2022-08-05T11:53:53.888Z,101409.31
2022-08-05T12:01:26.267Z,101417.59
2022-08-05T12:03:56.355Z,101410.72
2022-08-05T12:06:25.859Z,101417.75
2022-08-05T12:08:57.347Z,101423.97
2022-08-05T12:11:28.247Z,101431.66
2022-08-05T12:14:10.283Z,101425.66
2022-08-05T12:16:41.159Z,101429.78
2022-08-05T12:20:26.766Z,101428.00
2022-08-05T12:22:01.838Z,101420.47
2022-08-05T12:24:30.184Z,101430.97
2022-08-05T12:26:58.827Z,101429.56
2022-08-05T12:29:29.078Z,101430.28
2022-08-05T12:32:09.578Z,101435.25
2022-08-05T12:34:38.795Z,101442.81
2022-08-05T12:37:17.271Z,101445.75
2022-08-05T12:39:51.597Z,101452.06
2022-08-05T12:42:21.092Z,101447.00
2022-08-05T12:44:49.941Z,101440.34
2022-08-05T12:47:30.753Z,101447.34
2022-08-05T12:50:03.355Z,101450.97
2022-08-05T12:52:41.676Z,101452.34
2022-08-05T12:55:23.925Z,101449.56
2022-08-05T12:58:50.508Z,101450.28
2022-08-05T13:02:01.240Z,101451.38
2022-08-05T13:03:42.431Z,101448.97
2022-08-05T13:06:15.846Z,101458.19
2022-08-05T13:08:52.316Z,101456.00
2022-08-05T13:11:46.969Z,101456.19
2022-08-05T13:14:19.602Z,101463.66
2022-08-05T13:16:56.587Z,101456.34
2022-08-05T13:19:27.371Z,101445.72
2022-08-05T13:22:15.316Z,101449.84
2022-08-05T13:25:00.826Z,101446.91
2022-08-05T13:27:37.678Z,101459.75
2022-08-05T13:30:33.835Z,101449.50
2022-08-05T13:32:57.314Z,101456.69
2022-08-05T13:35:47.652Z,101450.41
2022-08-05T13:38:28.250Z,101453.09
2022-08-05T13:41:00.101Z,101451.56
2022-08-05T13:43:44.271Z,101454.00
2022-08-05T13:46:26.446Z,101457.06
2022-08-05T13:49:06.050Z,101447.19
2022-08-05T13:51:41.513Z,101450.38
2022-08-05T13:54:15.393Z,101449.84
2022-08-05T13:56:45.085Z,101460.66
2022-08-05T13:59:21.448Z,101452.56
2022-08-05T14:01:58.063Z,101451.50
2022-08-05T14:04:49.888Z,101443.34
2022-08-05T14:07:56.871Z,101453.47
2022-08-05T14:10:11.242Z,101464.09
2022-08-05T14:12:39.575Z,101462.53
2022-08-05T14:16:03.938Z,101442.84
2022-08-05T14:18:00.709Z,101441.75
2022-08-05T14:20:29.755Z,101448.91
2022-08-05T14:22:59.411Z,101446.72
2022-08-05T14:25:30.169Z,101455.19
2022-08-05T14:27:58.821Z,101449.16
2022-08-05T14:30:27.879Z,101451.06
2022-08-05T14:32:56.885Z,101458.72
2022-08-05T14:35:37.290Z,101460.81
2022-08-05T14:38:31.592Z,101461.53
2022-08-05T14:41:01.703Z,101458.88
2022-08-05T14:43:55.281Z,101470.13
2022-08-05T14:46:21.871Z,101457.38
2022-08-05T14:48:50.368Z,101461.91
2022-08-05T14:51:18.349Z,101472.25
2022-08-05T14:54:26.413Z,101461.88
2022-08-05T14:56:44.069Z,101462.69
2022-08-05T14:59:14.626Z,101464.06
2022-08-05T15:01:48.322Z,101460.22
2022-08-05T15:04:17.431Z,101463.41
2022-08-05T15:06:49.735Z,101474.19
2022-08-05T15:09:51.770Z,101504.31
2022-08-05T15:12:09.483Z,101516.97
2022-08-05T15:14:48.192Z,101520.78
2022-08-05T15:17:45.929Z,101519.75
2022-08-05T15:20:09.767Z,101519.47
2022-08-05T15:22:45.279Z,101520.78
2022-08-05T15:25:14.845Z,101528.75
2022-08-05T15:27:51.949Z,101532.06
2022-08-05T15:30:20.213Z,101527.88
2022-08-05T15:32:50.432Z,101528.03
2022-08-05T15:35:18.443Z,101536.34
2022-08-05T15:38:33.087Z,101539.56
2022-08-05T15:40:59.881Z,101541.88
2022-08-05T15:43:27.324Z,101535.09
2022-08-05T15:46:00.592Z,101549.38
2022-08-05T15:48:29.959Z,101550.06
2022-08-05T15:50:59.839Z,101555.84
2022-08-05T15:53:38.407Z,101564.38
2022-08-05T15:56:20.181Z,101566.13
2022-08-05T15:58:48.572Z,101568.72
2022-08-05T16:01:18.026Z,101569.31
2022-08-05T16:03:48.501Z,101588.16
2022-08-05T16:06:20.386Z,101574.38
2022-08-05T16:08:51.271Z,101576.09
2022-08-05T16:11:39.867Z,101568.47
2022-08-05T16:14:17.431Z,101569.78
2022-08-05T16:16:46.424Z,101579.00
2022-08-05T16:19:18.825Z,101581.59
2022-08-05T16:22:00.181Z,101589.38
2022-08-05T16:24:41.626Z,101592.16
2022-08-05T16:27:46.742Z,101600.63
2022-08-05T16:30:26.289Z,101595.09
2022-08-05T16:32:56.522Z,101609.09
2022-08-05T16:35:28.486Z,101605.69
2022-08-05T16:38:16.109Z,101615.38
2022-08-05T16:40:55.271Z,101613.31
2022-08-05T16:43:31.282Z,101615.09
2022-08-05T16:46:05.135Z,101624.69
2022-08-05T16:48:36.390Z,101608.09
2022-08-05T16:51:09.860Z,101630.88
2022-08-05T16:54:04.112Z,101632.34
2022-08-05T16:56:29.297Z,101637.22
2022-08-05T16:59:00.769Z,101631.75
2022-08-05T17:01:31.788Z,101648.38
2022-08-05T17:04:18.669Z,101640.75
2022-08-05T17:06:52.990Z,101633.13
2022-08-05T17:09:23.097Z,101640.88
2022-08-05T17:11:55.962Z,101642.22
2022-08-05T17:14:36.862Z,101642.56
2022-08-05T17:17:06.685Z,101653.06
2022-08-05T17:19:45.224Z,101642.72
2022-08-05T17:22:24.649Z,101650.34
2022-08-05T17:24:57.957Z,101670.31
2022-08-05T17:27:27.644Z,101674.66
2022-08-05T17:30:12.197Z,101679.13
2022-08-05T17:32:48.028Z,101680.34
2022-08-05T17:35:20.852Z,101681.13
2022-08-05T17:37:49.208Z,101676.53
2022-08-05T17:40:22.243Z,101683.81
2022-08-05T17:42:52.795Z,101688.31
2022-08-05T17:45:25.050Z,101700.28
2022-08-05T17:47:57.783Z,101703.78
2022-08-05T17:50:30.003Z,101708.53
2022-08-05T17:53:00.641Z,101715.06
2022-08-05T17:55:37.950Z,101719.63
2022-08-05T17:58:09.418Z,101720.81
2022-08-05T18:00:44.455Z,101726.09
2022-08-05T18:03:33.416Z,101723.59
2022-08-05T18:06:12.063Z,101726.00
2022-08-05T18:08:45.844Z,101719.91
2022-08-05T18:11:24.550Z,101739.16
2022-08-05T18:14:03.576Z,101740.97
2022-08-05T18:16:33.988Z,101736.72
2022-08-05T18:19:02.390Z,101743.50
2022-08-05T18:22:07.712Z,101748.84
2022-08-05T18:24:18.590Z,101742.75
2022-08-05T18:26:49.168Z,101751.31
2022-08-05T18:29:17.401Z,101762.09
2022-08-05T18:32:07.531Z,101752.97
2022-08-05T18:34:41.526Z,101751.72
2022-08-05T18:37:12.556Z,101761.97
2022-08-05T18:41:03.362Z,101749.66
2022-08-05T18:42:33.025Z,101762.97
2022-08-05T18:45:01.298Z,101750.84
2022-08-05T18:47:31.132Z,101748.50
2022-08-05T18:50:19.562Z,101759.06
2022-08-05T18:52:51.399Z,101773.91
2022-08-05T18:55:20.142Z,101769.19
2022-08-05T18:57:53.214Z,101771.38
2022-08-05T19:00:25.055Z,101778.56
2022-08-05T19:03:03.599Z,101792.41
2022-08-05T19:06:13.097Z,101785.94
2022-08-05T19:08:21.864Z,101794.28
2022-08-05T19:10:50.080Z,101794.97
2022-08-05T19:13:18.109Z,101803.03
2022-08-05T19:15:59.841Z,101807.19
2022-08-05T19:18:32.866Z,101812.78
2022-08-05T19:21:01.581Z,101812.81
2022-08-05T19:24:05.142Z,101810.41
2022-08-05T19:26:22.455Z,101815.50
2022-08-05T19:28:50.434Z,101821.47
2022-08-05T19:31:19.541Z,101821.47
2022-08-05T19:33:56.264Z,101829.47
2022-08-05T19:36:25.440Z,101839.44
2022-08-05T19:38:54.900Z,101845.47
2022-08-05T19:41:58.013Z,101842.09
2022-08-05T19:44:15.550Z,101840.66
2022-08-05T19:46:43.956Z,101842.44
2022-08-05T19:49:16.792Z,101853.34
2022-08-05T19:52:09.100Z,101854.03
2022-08-05T19:54:34.240Z,101847.47
2022-08-05T19:57:06.239Z,101859.47
2022-08-05T19:59:54.992Z,101849.03
2022-08-05T20:02:25.969Z,101861.84
2022-08-05T20:04:58.917Z,101866.03
2022-08-05T20:07:45.855Z,101873.25
2022-08-05T20:10:15.898Z,101870.25
2022-08-05T20:12:47.532Z,101861.34
2022-08-05T20:15:23.246Z,101870.09
2022-08-05T20:18:10.922Z,101879.03
2022-08-05T20:20:56.077Z,101878.88
2022-08-05T20:23:40.176Z,101880.91
2022-08-05T20:26:56.850Z,101890.13
2022-08-05T20:29:26.918Z,101876.56
2022-08-05T20:32:01.166Z,101891.09
2022-08-05T20:34:31.193Z,101889.41
2022-08-05T20:37:00.853Z,101895.59
2022-08-05T20:39:35.646Z,101900.78
2022-08-05T20:42:11.756Z,101903.78
2022-08-05T20:44:39.954Z,101906.53
2022-08-05T20:47:17.190Z,101908.25
2022-08-05T20:49:47.198Z,101912.84
2022-08-05T20:52:20.784Z,101916.25
2022-08-05T20:54:59.646Z,101915.63
2022-08-05T20:57:43.408Z,101910.41
2022-08-05T21:00:35.014Z,101917.06
2022-08-05T21:03:06.792Z,101929.22
2022-08-05T21:05:47.806Z,101913.53
2022-08-05T21:08:42.469Z,101925.63
2022-08-05T21:11:51.630Z,101915.81
2022-08-05T21:14:01.414Z,101928.16
2022-08-05T21:16:34.097Z,101933.75
2022-08-05T21:19:11.623Z,101941.75
2022-08-05T21:21:44.346Z,101934.03
2022-08-05T21:24:26.157Z,101942.69
2022-08-05T21:26:58.690Z,101953.69
2022-08-05T21:29:31.813Z,101947.06
2022-08-05T21:32:08.770Z,101957.97
2022-08-05T21:34:36.755Z,101957.38
2022-08-05T21:37:05.783Z,101947.63
2022-08-05T21:39:40.354Z,101949.66
2022-08-05T21:42:30.496Z,101956.81
2022-08-05T21:44:57.156Z,101954.53
2022-08-05T21:47:55.167Z,101957.81
2022-08-05T21:50:13.826Z,101950.81
2022-08-05T21:52:47.338Z,101949.81
2022-08-05T21:55:42.994Z,101956.66
2022-08-05T21:58:10.249Z,101953.91
2022-08-05T22:00:40.137Z,101952.09
2022-08-05T22:03:09.956Z,101959.72
2022-08-05T22:05:48.690Z,101959.00
2022-08-05T22:08:22.073Z,101965.97
2022-08-05T22:10:53.476Z,101972.34
2022-08-05T22:14:19.895Z,101969.66
2022-08-05T22:16:41.110Z,101972.47
2022-08-05T22:19:00.156Z,101972.16
2022-08-05T22:21:28.880Z,101976.00
2022-08-05T22:24:40.145Z,101962.66
2022-08-05T22:27:23.902Z,101968.41
2022-08-05T22:30:17.190Z,101977.22
2022-08-05T22:32:48.014Z,101968.09
2022-08-05T22:35:19.484Z,101974.59
2022-08-05T22:37:59.408Z,101970.72
2022-08-05T22:40:27.925Z,101979.13
2022-08-05T22:43:00.267Z,101986.22
2022-08-05T22:45:28.351Z,101988.97
2022-08-05T22:47:58.833Z,101985.63
2022-08-05T22:50:27.899Z,101984.06
2022-08-05T22:52:56.339Z,101983.44
2022-08-05T22:55:26.068Z,101989.84
2022-08-05T22:57:55.105Z,101994.50
2022-08-05T23:00:26.589Z,101989.94
2022-08-05T23:02:58.098Z,101983.63
2022-08-05T23:05:26.483Z,101989.94
2022-08-05T23:07:54.837Z,101994.28
2022-08-05T23:10:24.388Z,101991.88
2022-08-05T23:12:54.529Z,101999.38
2022-08-05T23:15:29.131Z,102005.94
2022-08-05T23:18:02.434Z,101994.28
2022-08-05T23:20:33.248Z,102000.63
2022-08-05T23:23:05.834Z,102010.88
2022-08-05T23:25:53.095Z,102011.59
2022-08-05T23:28:28.923Z,102015.72
2022-08-05T23:31:16.522Z,102016.28
2022-08-05T23:34:05.356Z,102009.41
2022-08-05T23:36:38.671Z,102021.38
2022-08-05T23:39:08.550Z,102030.91
2022-08-05T23:41:37.324Z,102021.69
2022-08-05T23:44:09.111Z,102028.66
2022-08-05T23:46:40.762Z,102035.31
2022-08-05T23:49:16.455Z,102042.91
2022-08-05T23:52:03.447Z,102052.66
2022-08-05T23:54:38.353Z,102050.41
2022-08-05T23:57:08.052Z,102044.25
